createdAt,value
2019-04-05T00:00:38.147Z,5.60
2019-04-05T00:03:06.742Z,5.60
2019-04-05T00:05:35.220Z,5.60
2019-04-05T00:08:03.996Z,5.60
2019-04-05T00:10:32.905Z,5.70
2019-04-05T00:13:01.408Z,5.60
2019-04-05T00:15:38.072Z,5.70
2019-04-05T00:18:06.044Z,5.80
2019-04-05T00:20:34.587Z,5.80
2019-04-05T00:23:03.285Z,5.70
2019-04-05T00:25:31.769Z,5.80
2019-04-05T00:28:00.198Z,5.80
2019-04-05T00:30:41.122Z,5.80
2019-04-05T00:33:09.539Z,5.80
2019-04-05T00:35:37.964Z,5.80
2019-04-05T00:38:06.610Z,5.80
2019-04-05T00:40:35.526Z,5.90
2019-04-05T00:43:04.091Z,5.90
2019-04-05T00:45:32.808Z,5.90
2019-04-05T00:48:01.243Z,5.80
2019-04-05T00:50:29.761Z,5.80
2019-04-05T00:52:58.515Z,5.80
2019-04-05T00:55:27.037Z,5.70
2019-04-05T00:57:55.638Z,5.80
2019-04-05T01:00:24.646Z,5.70
2019-04-05T01:02:53.113Z,5.70
2019-04-05T01:05:21.520Z,5.80
2019-04-05T01:07:50.923Z,5.90
2019-04-05T01:10:19.940Z,5.90
2019-04-05T01:12:48.411Z,5.90
2019-04-05T01:15:17.331Z,5.90
2019-04-05T01:17:45.816Z,5.90
2019-04-05T01:20:14.487Z,6.00
2019-04-05T01:22:45.602Z,6.10
2019-04-05T01:25:14.247Z,6.00
2019-04-05T01:27:43.211Z,6.00
2019-04-05T01:30:14.020Z,6.00
2019-04-05T01:32:42.576Z,6.00
2019-04-05T01:35:11.132Z,6.00
2019-04-05T01:37:40.772Z,6.00
2019-04-05T01:40:09.577Z,6.00
2019-04-05T01:42:38.537Z,6.00
2019-04-05T01:45:08.281Z,6.00
2019-04-05T01:47:37.246Z,5.90
2019-04-05T01:50:07.004Z,5.90
2019-04-05T01:52:36.009Z,5.90
2019-04-05T01:55:05.297Z,5.90
2019-04-05T01:57:33.809Z,5.90
2019-04-05T02:00:04.308Z,5.90
2019-04-05T02:02:32.798Z,5.90
2019-04-05T02:05:01.223Z,5.80
2019-04-05T02:07:30.100Z,5.80
2019-04-05T02:09:58.681Z,5.90
2019-04-05T02:12:30.062Z,5.90
2019-04-05T02:14:59.275Z,5.90
2019-04-05T02:17:27.727Z,5.90
2019-04-05T02:19:56.296Z,5.80
2019-04-05T02:22:26.162Z,5.80
2019-04-05T02:24:54.682Z,5.80
2019-04-05T02:27:23.226Z,5.90
2019-04-05T02:29:51.915Z,5.90
2019-04-05T02:32:20.459Z,5.80
2019-04-05T02:34:48.950Z,5.80
2019-04-05T02:37:19.983Z,5.80
2019-04-05T02:39:48.472Z,5.80
2019-04-05T02:42:17.933Z,5.80
2019-04-05T02:45:00.998Z,5.80
2019-04-05T02:47:30.016Z,5.80
2019-04-05T02:49:59.724Z,5.80
2019-04-05T02:52:29.313Z,5.80
2019-04-05T02:54:59.147Z,5.80
2019-04-05T02:57:28.912Z,5.80
2019-04-05T02:59:58.793Z,5.80
2019-04-05T03:02:29.653Z,5.80
2019-04-05T03:04:58.206Z,5.80
2019-04-05T03:07:27.871Z,5.80
2019-04-05T03:09:57.920Z,5.80
2019-04-05T03:12:27.118Z,5.80
2019-04-05T03:14:56.243Z,5.80
2019-04-05T03:17:26.610Z,5.80
2019-04-05T03:19:58.166Z,5.80
2019-04-05T03:22:30.446Z,5.80
2019-04-05T03:25:00.654Z,5.80
2019-04-05T03:27:32.823Z,5.80
2019-04-05T03:30:02.958Z,5.80
2019-04-05T03:32:32.003Z,5.80
2019-04-05T03:35:00.557Z,5.80
2019-04-05T03:37:29.209Z,5.80
2019-04-05T03:39:59.646Z,5.80
2019-04-05T03:42:28.974Z,5.80
2019-04-05T03:44:57.621Z,5.90
2019-04-05T03:47:26.278Z,5.80
2019-04-05T03:49:55.254Z,5.80
2019-04-05T03:52:25.333Z,5.80
2019-04-05T03:54:54.170Z,5.80
2019-04-05T03:57:23.634Z,5.70
2019-04-05T03:59:52.761Z,5.70
2019-04-05T04:02:23.529Z,5.70
2019-04-05T04:04:52.282Z,5.70
2019-04-05T04:07:20.764Z,5.70
2019-04-05T04:09:49.313Z,5.70
2019-04-05T04:12:18.208Z,5.70
2019-04-05T04:14:46.829Z,5.70
2019-04-05T04:17:15.397Z,5.70
2019-04-05T04:19:46.596Z,5.60
2019-04-05T04:22:23.988Z,5.60
2019-04-05T04:24:53.063Z,5.60
2019-04-05T04:27:21.993Z,5.60
2019-04-05T04:29:50.549Z,5.70
2019-04-05T04:32:19.716Z,5.70
2019-04-05T04:34:48.584Z,5.70
2019-04-05T04:37:17.226Z,5.60
2019-04-05T04:39:46.527Z,5.60
2019-04-05T04:42:15.627Z,5.60
2019-04-05T04:44:44.271Z,5.60
2019-04-05T04:47:26.494Z,5.60
2019-04-05T04:49:47.801Z,5.60
2019-04-05T04:52:17.307Z,5.60
2019-04-05T04:54:46.424Z,5.60
2019-04-05T04:57:14.991Z,5.60
2019-04-05T04:59:43.573Z,5.50
2019-04-05T05:02:12.882Z,5.50
2019-04-05T05:04:41.412Z,5.50
2019-04-05T05:07:10.060Z,5.60
2019-04-05T05:09:38.915Z,5.60
2019-04-05T05:12:07.435Z,5.60
2019-04-05T05:14:36.411Z,5.60
2019-04-05T05:17:05.607Z,5.60
2019-04-05T05:19:34.342Z,5.60
2019-04-05T05:22:02.859Z,5.60
2019-04-05T05:24:31.626Z,5.60
2019-04-05T05:27:00.375Z,5.60
2019-04-05T05:29:29.240Z,5.50
2019-04-05T05:31:58.105Z,5.50
2019-04-05T05:34:27.007Z,5.60
2019-04-05T05:36:55.529Z,5.60
2019-04-05T05:39:24.293Z,5.60
2019-04-05T05:41:54.596Z,5.70
2019-04-05T05:44:23.129Z,5.70
2019-04-05T05:46:51.987Z,5.80
2019-04-05T05:49:21.846Z,5.80
2019-04-05T05:51:50.518Z,5.90
2019-04-05T05:54:20.392Z,5.90
2019-04-05T05:56:49.889Z,5.90
2019-04-05T05:59:18.379Z,6.00
2019-04-05T06:01:47.522Z,6.00
2019-04-05T06:04:15.950Z,6.00
2019-04-05T06:06:44.396Z,6.10
2019-04-05T06:09:13.952Z,6.10
2019-04-05T06:11:42.366Z,6.20
2019-04-05T06:14:12.083Z,6.30
2019-04-05T06:16:46.493Z,6.30
2019-04-05T06:19:11.710Z,6.40
2019-04-05T06:21:40.285Z,6.50
2019-04-05T06:24:09.059Z,6.50
2019-04-05T06:26:37.503Z,6.60
2019-04-05T06:29:06.010Z,6.70
2019-04-05T06:31:34.687Z,6.80
2019-04-05T06:34:03.187Z,6.90
2019-04-05T06:36:31.822Z,7.00
2019-04-05T06:39:01.074Z,7.00
2019-04-05T06:41:29.526Z,7.10
2019-04-05T06:43:57.951Z,7.10
2019-04-05T06:46:26.694Z,7.20
2019-04-05T06:48:55.175Z,7.30
2019-04-05T06:51:23.650Z,7.30
2019-04-05T06:53:52.320Z,7.50
2019-04-05T06:56:20.824Z,7.60
2019-04-05T06:58:49.288Z,7.80
2019-04-05T07:01:17.965Z,8.00
2019-04-05T07:03:46.454Z,8.00
2019-04-05T07:06:14.895Z,8.30
2019-04-05T07:08:53.118Z,8.40
2019-04-05T07:11:13.690Z,8.60
2019-04-05T07:13:42.239Z,8.90
2019-04-05T07:16:11.238Z,9.10
2019-04-05T07:18:40.160Z,9.40
2019-04-05T07:21:09.184Z,9.50
2019-04-05T07:23:39.113Z,9.50
2019-04-05T07:26:07.823Z,9.60
2019-04-05T07:28:36.398Z,9.60
2019-04-05T07:31:05.228Z,9.70
2019-04-05T07:33:33.752Z,9.70
2019-04-05T07:36:03.571Z,9.60
2019-04-05T07:38:32.788Z,9.70
2019-04-05T07:41:01.316Z,10.00
2019-04-05T07:43:29.743Z,10.20
2019-04-05T07:45:58.464Z,10.10
2019-04-05T07:48:27.136Z,9.90
2019-04-05T07:50:55.650Z,9.90
2019-04-05T07:53:24.286Z,9.90
2019-04-05T07:55:52.896Z,10.20
2019-04-05T07:58:21.373Z,10.80
2019-04-05T08:00:53.146Z,11.50
2019-04-05T08:03:23.143Z,12.30
2019-04-05T08:05:53.157Z,12.20
2019-04-05T08:08:36.898Z,12.20
2019-04-05T08:11:06.629Z,11.90
2019-04-05T08:13:36.902Z,11.50
2019-04-05T08:16:05.886Z,11.50
2019-04-05T08:18:34.344Z,11.70
2019-04-05T08:21:02.882Z,11.90
2019-04-05T08:23:31.687Z,12.00
2019-04-05T08:26:00.157Z,12.20
2019-04-05T08:28:29.754Z,12.50
2019-04-05T08:30:58.740Z,12.30
2019-04-05T08:33:38.407Z,12.80
2019-04-05T08:36:07.108Z,13.60
2019-04-05T08:38:35.790Z,13.70
2019-04-05T08:41:04.635Z,13.30
2019-04-05T08:43:33.380Z,12.90
2019-04-05T08:46:01.830Z,12.40
2019-04-05T08:48:30.337Z,11.80
2019-04-05T08:50:59.032Z,11.40
2019-04-05T08:53:27.506Z,11.00
2019-04-05T08:55:56.107Z,10.90
2019-04-05T08:58:33.415Z,11.50
2019-04-05T09:00:55.019Z,11.90
2019-04-05T09:03:23.611Z,12.80
2019-04-05T09:05:52.255Z,13.40
2019-04-05T09:08:21.506Z,12.90
2019-04-05T09:10:50.120Z,13.10
2019-04-05T09:13:18.895Z,12.30
2019-04-05T09:15:47.582Z,11.40
2019-04-05T09:18:16.125Z,11.30
2019-04-05T09:20:44.841Z,11.10
2019-04-05T09:23:13.879Z,10.80
2019-04-05T09:25:42.414Z,10.90
2019-04-05T09:28:11.254Z,10.50
2019-04-05T09:30:40.054Z,10.30
2019-04-05T09:33:08.527Z,10.30
2019-04-05T09:35:37.318Z,10.30
2019-04-05T09:38:05.821Z,10.40
2019-04-05T09:40:34.373Z,10.40
2019-04-05T09:43:03.172Z,10.20
2019-04-05T09:45:31.834Z,10.20
2019-04-05T09:48:00.279Z,9.90
2019-04-05T09:50:28.802Z,9.90
2019-04-05T09:52:57.290Z,9.90
2019-04-05T09:55:25.930Z,9.90
2019-04-05T09:57:54.541Z,10.00
2019-04-05T10:00:24.792Z,10.20
2019-04-05T10:02:53.249Z,10.20
2019-04-05T10:05:22.050Z,10.10
2019-04-05T10:07:55.422Z,10.30
2019-04-05T10:10:21.077Z,10.50
2019-04-05T10:12:54.605Z,10.40
2019-04-05T10:15:23.198Z,10.70
2019-04-05T10:17:51.628Z,10.80
2019-04-05T10:20:20.406Z,11.00
2019-04-05T10:22:49.590Z,11.30
2019-04-05T10:25:18.222Z,11.60
2019-04-05T10:27:47.597Z,11.70
2019-04-05T10:30:16.369Z,11.70
2019-04-05T10:32:46.320Z,11.70
2019-04-05T10:35:17.334Z,11.60
2019-04-05T10:37:46.426Z,11.60
2019-04-05T10:40:15.722Z,11.40
2019-04-05T10:42:46.641Z,11.60
2019-04-05T10:45:16.118Z,11.50
2019-04-05T10:47:44.726Z,11.80
2019-04-05T10:50:14.749Z,12.50
2019-04-05T10:52:43.362Z,13.30
2019-04-05T10:55:12.279Z,14.00
2019-04-05T10:57:41.228Z,15.00
2019-04-05T11:00:12.889Z,15.30
2019-04-05T11:02:41.485Z,15.60
2019-04-05T11:05:10.555Z,15.70
2019-04-05T11:07:38.999Z,15.00
2019-04-05T11:10:08.529Z,14.00
2019-04-05T11:12:37.231Z,13.50
2019-04-05T11:15:07.765Z,13.40
2019-04-05T11:17:36.284Z,12.80
2019-04-05T11:20:21.037Z,12.40
2019-04-05T11:22:41.677Z,12.40
2019-04-05T11:25:10.826Z,12.40
2019-04-05T11:27:39.344Z,12.60
2019-04-05T11:30:09.137Z,12.50
2019-04-05T11:32:37.727Z,12.50
2019-04-05T11:35:07.951Z,12.50
2019-04-05T11:37:39.534Z,12.60
2019-04-05T11:40:10.134Z,12.30
2019-04-05T11:42:38.868Z,12.20
2019-04-05T11:45:09.271Z,12.20
2019-04-05T11:47:40.503Z,12.20
2019-04-05T11:50:11.379Z,12.20
2019-04-05T11:52:46.383Z,12.30
2019-04-05T11:55:18.190Z,12.50
2019-04-05T11:57:45.153Z,12.70
2019-04-05T12:00:32.295Z,12.80
2019-04-05T12:03:02.451Z,12.50
2019-04-05T12:05:31.072Z,12.20
2019-04-05T12:08:01.869Z,12.30
2019-04-05T12:10:32.007Z,12.30
2019-04-05T12:13:00.278Z,12.10
2019-04-05T12:15:28.978Z,12.10
2019-04-05T12:17:57.476Z,12.00
2019-04-05T12:20:26.002Z,11.80
2019-04-05T12:22:54.859Z,11.90
2019-04-05T12:25:23.267Z,12.00
2019-04-05T12:27:51.749Z,12.00
2019-04-05T12:30:22.790Z,11.90
2019-04-05T12:32:51.343Z,11.90
2019-04-05T12:35:21.660Z,11.80
2019-04-05T12:37:55.405Z,11.60
2019-04-05T12:40:21.170Z,11.40
2019-04-05T12:42:53.219Z,11.40
2019-04-05T12:45:22.457Z,11.30
2019-04-05T12:47:51.075Z,11.10
2019-04-05T12:50:19.704Z,11.10
2019-04-05T12:52:48.347Z,11.10
2019-04-05T12:55:17.326Z,11.10
2019-04-05T12:57:48.276Z,11.30
2019-04-05T13:00:17.340Z,11.30
2019-04-05T13:02:47.799Z,11.30
2019-04-05T13:05:16.162Z,11.30
2019-04-05T13:07:44.930Z,11.20
2019-04-05T13:10:13.757Z,11.20
2019-04-05T13:12:42.268Z,11.10
2019-04-05T13:15:15.359Z,11.20
2019-04-05T13:17:41.843Z,11.10
2019-04-05T13:20:10.935Z,11.00
2019-04-05T13:22:39.639Z,11.10
2019-04-05T13:25:10.629Z,10.90
2019-04-05T13:27:41.233Z,10.80
2019-04-05T13:30:09.727Z,10.80
2019-04-05T13:32:38.251Z,10.80
2019-04-05T13:35:07.363Z,10.70
2019-04-05T13:37:36.223Z,10.70
2019-04-05T13:40:06.801Z,10.70
2019-04-05T13:42:35.652Z,10.60
2019-04-05T13:45:07.237Z,10.70
2019-04-05T13:47:38.862Z,10.70
2019-04-05T13:50:11.012Z,10.70
2019-04-05T13:52:41.420Z,10.60
2019-04-05T13:55:10.525Z,10.70
2019-04-05T13:57:40.938Z,10.80
2019-04-05T14:00:10.117Z,10.80
2019-04-05T14:02:40.791Z,10.90
2019-04-05T14:05:14.634Z,10.80
2019-04-05T14:07:43.730Z,10.70
2019-04-05T14:10:13.315Z,10.80
2019-04-05T14:12:41.824Z,10.80
2019-04-05T14:15:11.982Z,10.70
2019-04-05T14:17:44.092Z,10.60
2019-04-05T14:20:11.524Z,10.60
2019-04-05T14:22:40.003Z,10.50
2019-04-05T14:25:09.685Z,10.60
2019-04-05T14:27:38.247Z,10.80
2019-04-05T14:30:07.458Z,10.70
2019-04-05T14:32:36.941Z,10.70
2019-04-05T14:35:08.349Z,10.80
2019-04-05T14:37:36.979Z,10.80
2019-04-05T14:40:07.718Z,10.80
2019-04-05T14:42:36.303Z,10.70
2019-04-05T14:45:07.231Z,10.50
2019-04-05T14:47:35.902Z,10.40
2019-04-05T14:50:07.166Z,10.30
2019-04-05T14:52:36.029Z,10.20
2019-04-05T14:55:05.477Z,10.20
2019-04-05T14:57:35.687Z,10.20
2019-04-05T15:00:08.956Z,10.30
2019-04-05T15:02:37.570Z,10.20
2019-04-05T15:05:07.638Z,10.10
2019-04-05T15:07:37.853Z,10.10
2019-04-05T15:10:07.335Z,10.00
2019-04-05T15:12:35.821Z,10.00
2019-04-05T15:15:07.609Z,10.00
2019-04-05T15:17:47.348Z,10.00
2019-04-05T15:20:08.196Z,10.00
2019-04-05T15:22:36.736Z,10.00
2019-04-05T15:25:07.685Z,9.90
2019-04-05T15:27:36.380Z,9.90
2019-04-05T15:30:06.926Z,9.90
2019-04-05T15:32:37.473Z,9.80
2019-04-05T15:35:07.940Z,9.80
2019-04-05T15:37:37.696Z,9.70
2019-04-05T15:40:08.110Z,9.60
2019-04-05T15:42:36.600Z,9.70
2019-04-05T15:45:08.418Z,9.60
2019-04-05T15:47:37.289Z,9.60
2019-04-05T15:50:07.662Z,9.60
2019-04-05T15:52:36.453Z,9.60
2019-04-05T15:55:08.367Z,9.60
2019-04-05T15:57:39.191Z,9.60
2019-04-05T16:00:09.854Z,9.60
2019-04-05T16:02:37.651Z,9.60
2019-04-05T16:05:08.000Z,9.60
2019-04-05T16:07:36.868Z,9.50
2019-04-05T16:10:08.420Z,9.40
2019-04-05T16:12:36.927Z,9.40
2019-04-05T16:15:08.366Z,9.30
2019-04-05T16:17:36.997Z,9.30
2019-04-05T16:20:08.511Z,9.30
2019-04-05T16:22:38.314Z,9.30
2019-04-05T16:25:08.654Z,9.30
2019-04-05T16:27:37.148Z,9.30
2019-04-05T16:30:08.004Z,9.30
2019-04-05T16:32:36.855Z,9.30
2019-04-05T16:35:06.941Z,9.20
2019-04-05T16:37:35.628Z,9.10
2019-04-05T16:40:06.632Z,9.10
2019-04-05T16:42:35.055Z,9.10
2019-04-05T16:45:05.698Z,9.20
2019-04-05T16:47:34.143Z,9.10
2019-04-05T16:50:02.790Z,9.10
2019-04-05T16:52:43.850Z,9.10
2019-04-05T16:55:01.766Z,9.10
2019-04-05T16:57:30.178Z,9.10
2019-04-05T16:59:59.074Z,9.10
2019-04-05T17:02:27.683Z,9.10
2019-04-05T17:04:56.188Z,9.10
2019-04-05T17:07:24.879Z,9.00
2019-04-05T17:09:53.716Z,9.00
2019-04-05T17:12:22.145Z,9.00
2019-04-05T17:14:50.832Z,8.90
2019-04-05T17:17:19.348Z,8.90
2019-04-05T17:19:48.117Z,8.90
2019-04-05T17:22:17.376Z,8.90
2019-04-05T17:24:45.951Z,8.90
2019-04-05T17:27:14.454Z,8.90
2019-04-05T17:29:43.079Z,9.00
2019-04-05T17:32:11.638Z,9.00
2019-04-05T17:34:40.166Z,9.00
2019-04-05T17:37:08.784Z,9.00
2019-04-05T17:39:37.261Z,9.00
2019-04-05T17:42:05.721Z,8.90
2019-04-05T17:44:34.627Z,8.90
2019-04-05T17:47:03.109Z,8.90
2019-04-05T17:49:31.625Z,8.90
2019-04-05T17:52:00.373Z,8.80
2019-04-05T17:54:28.797Z,8.90
2019-04-05T17:57:06.025Z,8.90
2019-04-05T17:59:34.783Z,8.80
2019-04-05T18:02:04.525Z,8.90
2019-04-05T18:04:33.375Z,8.90
2019-04-05T18:07:02.877Z,8.80
2019-04-05T18:09:31.398Z,8.80
2019-04-05T18:11:59.953Z,8.80
2019-04-05T18:14:28.441Z,8.80
2019-04-05T18:16:57.033Z,8.70
2019-04-05T18:19:31.155Z,8.70
2019-04-05T18:22:02.655Z,8.70
2019-04-05T18:24:31.535Z,8.80
2019-04-05T18:27:00.023Z,8.80
2019-04-05T18:29:28.526Z,8.80
2019-04-05T18:31:57.310Z,8.80
2019-04-05T18:34:25.777Z,8.80
2019-04-05T18:36:54.270Z,8.70
2019-04-05T18:39:28.652Z,8.80
2019-04-05T18:41:57.145Z,8.80
2019-04-05T18:44:25.877Z,8.80
2019-04-05T18:46:55.077Z,8.80
2019-04-05T18:49:23.693Z,8.80
2019-04-05T18:51:52.236Z,8.80
2019-04-05T18:54:31.206Z,8.80
2019-04-05T18:57:00.074Z,8.80
2019-04-05T18:59:28.580Z,8.70
2019-04-05T19:01:57.629Z,8.70
2019-04-05T19:04:26.752Z,8.70
2019-04-05T19:06:55.890Z,8.70
2019-04-05T19:09:24.606Z,8.70
2019-04-05T19:11:53.496Z,8.70
2019-04-05T19:14:21.949Z,8.60
2019-04-05T19:16:51.154Z,8.60
2019-04-05T19:19:19.866Z,8.60
2019-04-05T19:21:48.348Z,8.60
2019-04-05T19:24:18.245Z,8.50
2019-04-05T19:26:46.718Z,8.60
2019-04-05T19:29:15.183Z,8.60
2019-04-05T19:49:17.343Z,8.50
2019-04-05T19:51:45.867Z,8.50
2019-04-05T19:54:15.486Z,8.50
2019-04-05T19:56:43.971Z,8.50
2019-04-05T19:59:12.457Z,8.60
2019-04-05T20:01:41.418Z,8.50
2019-04-05T20:04:09.905Z,8.50
2019-04-05T20:06:38.511Z,8.50
2019-04-05T20:09:07.617Z,8.50
2019-04-05T20:11:36.257Z,8.50
2019-04-05T20:14:04.879Z,8.50
2019-04-05T20:16:33.736Z,8.50
2019-04-05T20:19:02.307Z,8.50
2019-04-05T20:21:30.868Z,8.50
2019-04-05T20:23:59.542Z,8.50
2019-04-05T20:26:28.034Z,8.50
2019-04-05T20:28:56.502Z,8.50
2019-04-05T20:31:25.137Z,8.50
2019-04-05T20:33:53.606Z,8.50
2019-04-05T20:36:22.066Z,8.50
2019-04-05T20:38:50.783Z,8.60
2019-04-05T20:41:19.250Z,8.50
2019-04-05T20:43:47.710Z,8.60
2019-04-05T20:46:16.445Z,8.50
2019-04-05T20:48:45.020Z,8.60
2019-04-05T20:51:13.603Z,8.60
2019-04-05T20:53:42.497Z,8.60
2019-04-05T20:56:10.961Z,8.60
2019-04-05T20:58:39.443Z,8.50
2019-04-05T21:01:08.182Z,8.60
2019-04-05T21:03:36.686Z,8.50
2019-04-05T21:06:05.251Z,8.60
2019-04-05T21:08:34.032Z,8.50
2019-04-05T21:11:02.612Z,8.60
2019-04-05T21:13:31.363Z,8.60
2019-04-05T21:16:00.091Z,8.60
2019-04-05T21:18:28.540Z,8.60
2019-04-05T21:20:57.070Z,8.50
2019-04-05T21:23:26.119Z,8.60
2019-04-05T21:25:54.576Z,8.60
2019-04-05T21:28:23.065Z,8.60
2019-04-05T21:30:51.861Z,8.60
2019-04-05T21:33:20.314Z,8.70
2019-04-05T21:35:48.837Z,8.70
2019-04-05T21:38:17.891Z,8.70
2019-04-05T21:40:46.369Z,8.70
2019-04-05T21:43:14.846Z,8.70
2019-04-05T21:45:43.520Z,8.70
2019-04-05T21:48:11.970Z,8.70
2019-04-05T21:50:40.496Z,8.70
2019-04-05T21:53:09.321Z,8.70
2019-04-05T21:55:37.773Z,8.60
2019-04-05T21:58:06.244Z,8.60
2019-04-05T22:00:45.364Z,8.60
2019-04-05T22:03:13.907Z,8.60
2019-04-05T22:05:43.029Z,8.60
2019-04-05T22:08:11.570Z,8.60
2019-04-05T22:10:40.329Z,8.50
2019-04-05T22:13:09.003Z,8.50
2019-04-05T22:15:38.199Z,8.50
2019-04-05T22:18:06.630Z,8.50
2019-04-05T22:20:36.577Z,8.50
2019-04-05T22:23:05.292Z,8.50
2019-04-05T22:25:34.084Z,8.60
2019-04-05T22:28:02.545Z,8.50
2019-04-05T22:30:31.445Z,8.50
2019-04-05T22:32:59.928Z,8.50
2019-04-05T22:35:28.461Z,8.60
2019-04-05T22:37:57.350Z,8.60
2019-04-05T22:40:25.809Z,8.60
2019-04-05T22:42:54.252Z,8.60
2019-04-05T22:45:23.050Z,8.60
2019-04-05T22:47:51.664Z,8.60
2019-04-05T22:50:20.069Z,8.60
2019-04-05T22:52:49.023Z,8.60
2019-04-05T22:55:17.495Z,8.60
2019-04-05T22:57:46.226Z,8.60
2019-04-05T23:00:15.380Z,8.60
2019-04-05T23:02:43.913Z,8.60
2019-04-05T23:05:12.509Z,8.60
2019-04-05T23:07:41.398Z,8.50
2019-04-05T23:10:09.997Z,8.50
2019-04-05T23:12:38.493Z,8.50
2019-04-05T23:15:08.435Z,8.50
2019-04-05T23:17:36.943Z,8.60
2019-04-05T23:20:06.422Z,8.50
2019-04-05T23:22:35.069Z,8.50
2019-04-05T23:25:05.442Z,8.60
2019-04-05T23:27:33.925Z,8.60
2019-04-05T23:30:02.736Z,8.60
2019-04-05T23:32:31.369Z,8.60
2019-04-05T23:34:59.894Z,8.50
2019-04-05T23:37:28.769Z,8.60
2019-04-05T23:39:57.209Z,8.60
2019-04-05T23:42:25.762Z,8.60
2019-04-05T23:44:54.755Z,8.60
2019-04-05T23:47:23.262Z,8.60
2019-04-05T23:49:51.938Z,8.60
2019-04-05T23:52:20.774Z,8.60
2019-04-05T23:54:49.207Z,8.60
2019-04-05T23:57:17.619Z,8.60
2019-04-05T23:59:46.376Z,8.60
